Portada
METAR-TAF:

METAR-TAF

Aeroports :

Golden Triangle Regional Airport

West Point-Starkville, Mississipí, Estats Units d'Amèrica

latitud: 33-27N, longitud: 088-35W, altitud: 80 m

Observació

L'informe es va fer fa 23 minuts, a les 04:56 UTC
Vent calma
Temperatura 24°C
Humitat 83%
Pressió 1020 hPa
Visibilitat: 16.1 km
Cel clar

METAR: KGTR 220456Z AUTO 00000KT 10SM CLR 24/21 A3011 RMK AO2 SLP202 T02390206

Hora: 00:19 (05:19 UTC)

Pronòstic

L'informe es va fer fa 5 hores i 49 minuts, a les 23:30 UTC
Pronòstic vàlid del 22 a les 00 UTC al 22 a les 24 UTC
Vent 3 kt amb direcció variable
Visibilitat: 10 km
Núvols disperses a una alçada de 7000 ft

TAF: KGTR 212330Z 2200/2224 VRB03KT P6SM SCT070

Observacions i pronòstics meteorològics de més de 4000 aeroports (METAR i TAF).

Les estacions disponibles són els punts grocs i vermells al mapa.

Posi el ratolí al punt desitjat per veure el nom de l'estació.

Feu clic per veure les observacions i els pronòstics meteorològics.

Per canviar el mapa: feu clic els botons verds amb una creu de color negre per apropar; al botó verd amb un guió per allunyar la imatge; o en les fletxes verdes per a mapes adjacents.


METAR-TAF: